10°C
Porth, Newquay, Cornwall. UK  Tell A Friend
 Ad **Ad
Updated17/12/2017 14:00 
 


Nearby METAR Reports From


Metar Station     Metar Station     Metar Station     Metar Station     Metar Station
EGHQ Newquay     EGDR Culdrose (navy)     EGDX ST Athan raf     EGDY Yeovitilton (navy)     EGFF Cardiff
EGHH Bournemouth     EGBB Birmingham     EGKA Shoreham-By-Sea     EGOP Pembry Sands     EGTE Exeter Airport
EGGD Bristol     EGHE Scilly     EGJA Alderney     EGJB Guernsey     EGJJ Jersey
France       LFRC Cherbourg/Mauper     LFRB Brest/Guipavas     LFRO Lannion/Servel        
More Metars Here                                
EGHQ - Newquay, United Kingdom
Updated: 17/12/2017 13:20
Light rain, Mostly cloudy
Light rain, Mostly cloudy
 Wind from WSW
Wind: WSW 17 mph , 28 km/h, 15 kts
Temperature: 9°C
Wind Chill: 6°C
Dew Point: 8°C
Humidity: 94%
Barometer: 1024 hPa
Summary: Light Rain
Clouds: Mostly Cloudy
Visibility: 2 miles , 4 km
Cloud details: Mostly Cloudy 152 m
2017/12/17 13:20 EGHQ 171320Z 25015KT 4000 -RA BKN005 09/08 Q1024
EGDR - Culdrose (navy), United Kingdom
Updated: 17/12/2017 12:50
Mostly Cloudy
Mostly Cloudy
 Wind from WSW
Wind: WSW 15 mph , 24 km/h, 13 kts
Temperature: 11°C
Dew Point: 9°C
Humidity: 88%
Barometer: 1025 hPa
Clouds: Mostly Cloudy
Visibility: 6 miles , 10 km
Cloud details: Partly Cloudy 701 m
Mostly Cloudy 823 m
2017/12/17 12:50 EGDR 171250Z AUTO 24013KT 9999 // SCT023/// BKN027/// 11/09 Q1025
 
EGHC - Lands End, United Kingdom
Updated: 16/12/2017 11:50

NOT Current
Few Clouds
Few Clouds
 Wind from NW
Wind: NW 14 mph , 22 km/h, 12 kts
Temperature: 7°C
Wind Chill: 4°C
Dew Point: 2°C
Humidity: 71%
Barometer: 1023 hPa
Clouds: Few Clouds
Visibility: 6 miles , 10 km
Cloud details: Few Clouds 366 m
2017/12/16 11:50 EGHC 161150Z 31012KT 9999 FEW012 07/02 Q1023
EGHE - Scilly Saint Mar, United Kingdom
Updated: 16/12/2017 12:20

NOT Current
Mostly Cloudy
Mostly Cloudy
 Wind from NNW
Wind: NNW 12 mph , 19 km/h, 10 kts
Temperature: 9°C
Wind Chill: 6°C
Dew Point: 2°C
Humidity: 62%
Barometer: 1025 hPa
Clouds: Mostly Cloudy
Visibility: 6 miles , 10 km
Cloud details: Partly Cloudy 792 m
Mostly Cloudy 1097 m
2017/12/16 12:20 EGHE 161220Z 33010KT 9999 SCT026 BKN036 09/02 Q1025
 
EGTE - Exeter Airport, United Kingdom
Updated: 17/12/2017 13:20
Mostly Cloudy
Mostly Cloudy
 Wind from SW
Wind: SW 9 mph , 15 km/h, 8 kts
Temperature: 10°C
Wind Chill: 8°C
Dew Point: 7°C
Humidity: 82%
Barometer: 1023 hPa
Clouds: Mostly Cloudy
Visibility: 6 miles , 10 km
Cloud details: Mostly Cloudy 1372 m
2017/12/17 13:20 EGTE 171320Z 22008KT 9999 BKN045 10/07 Q1023
EGOP - Pembry Sands, United Kingdom
Updated: 17/12/2017 12:50
Overcast
Overcast
 Wind from WSW
Wind: WSW 23 mph , 37 km/h, 20 kts
Temperature: 10°C
Wind Chill: 6°C
Dew Point: 10°C
Humidity: 100%
Barometer: 1021 hPa
Clouds: Overcast
Visibility: 1 mile , 2 km
Cloud details: Overcast 61 m
2017/12/17 12:50 EGOP 171250Z AUTO 25020KT 2400 // OVC002/// 10/10 Q1021
 
EGDX - St Athan Raf, United Kingdom
Updated: 17/12/2017 12:50
Rain, Mostly cloudy
Rain, Mostly cloudy
 Wind from WSW
Wind: WSW 21 mph , 33 km/h, 18 kts
Temperature: 10°C
Wind Chill: 6°C
Dew Point: 9°C
Humidity: 94%
Barometer: 1021 hPa
Summary: Rain
Clouds: Mostly Cloudy
Visibility: 2 miles , 4 km
Cloud details: Partly Cloudy 305 m
Mostly Cloudy 914 m
2017/12/17 12:50 EGDX 171250Z 25018KT 4000 RA SCT010 BKN030 10/09 Q1021 GRN
EGFF - Cardiff-Wales Ar, United Kingdom
Updated: 17/12/2017 13:20
Rain, Overcast
Rain, Overcast
 Wind from W
Wind: W 18 mph , 30 km/h, 16 kts
Temperature: 9°C
Wind Chill: 5°C
Dew Point: 9°C
Humidity: 100%
Barometer: 1021 hPa
Summary: Rain
Clouds: Overcast
Visibility: 2 miles , 3 km
Cloud details: Mostly Cloudy 152 m
Overcast 762 m
2017/12/17 13:20 EGFF 171320Z AUTO 26016KT 2500 RA BKN005 OVC025 09/09 Q1021 REDZ
 
EGDY - Yeovilton (navy), United Kingdom
Updated: 17/12/2017 12:50
Light rain, Drizzle, Mostly cloudy
Light rain, Drizzle, Mostly cloudy
 Wind from SW
Wind: SW 9 mph , 15 km/h, 8 kts
Temperature: 9°C
Wind Chill: 7°C
Dew Point: 8°C
Humidity: 94%
Barometer: 1023 hPa
Summary: Light rain, Drizzle
Clouds: Mostly Cloudy
Visibility: 6 miles , 10 km
Cloud details: Mostly Cloudy 1433 m
2017/12/17 12:50 EGDY 171250Z AUTO 22008KT 9999 -RADZ BKN047/// 09/08 Q1023
EGGD - Bristol/Lulsgate, United Kingdom
Updated: 17/12/2017 13:20
Overcast
Overcast
 Wind from SW
Wind: SW 10 mph , 17 km/h, 9 kts
Temperature: 8°C
Wind Chill: 5°C
Dew Point: 8°C
Humidity: 100%
Barometer: 1021 hPa
Clouds: Overcast
Visibility: 6 miles , 10 km
Cloud details: Mostly Cloudy 122 m
Mostly Cloudy 274 m
Overcast 396 m
2017/12/17 13:20 EGGD 171320Z AUTO 22009KT 9999 BKN004 BKN009 OVC013 08/08 Q1021
 
EGBB - Birmingham Airpo, United Kingdom
Updated: 17/12/2017 13:50
Light drizzle, Mostly cloudy
Light drizzle, Mostly cloudy
 Wind from SSW
Wind: SSW 9 mph , 15 km/h, 8 kts
Temperature: 7°C
Wind Chill: 4°C
Dew Point: 7°C
Humidity: 100%
Barometer: 1018 hPa
Summary: Light Drizzle
Clouds: Mostly Cloudy
Visibility: 3 miles , 5 km
Cloud details: Mostly Cloudy 152 m
2017/12/17 13:50 EGBB 171350Z 21008KT 180V240 5000 -DZ BKN005 07/07 Q1018
EGHH - Bournemouth Airp, United Kingdom
Updated: 17/12/2017 13:20
Light rain, Mostly cloudy
Light rain, Mostly cloudy
 Wind from WSW
Wind: WSW 8 mph , 13 km/h, 7 kts
Temperature: 9°C
Wind Chill: 7°C
Dew Point: 8°C
Humidity: 94%
Barometer: 1023 hPa
Summary: Light Rain
Clouds: Mostly Cloudy
Visibility: 6 miles , 10 km
Cloud details: Few Clouds 945 m
Mostly Cloudy 1433 m
2017/12/17 13:20 EGHH 171320Z 24007KT 9999 -RA FEW031 BKN047 09/08 Q1023
 
EGKA - Shoreham-By-Sea, United Kingdom
Updated: 17/12/2017 13:20
Light rain, Mostly cloudy
Light rain, Mostly cloudy
 Wind from calm
Wind: Calm, 0 kts
Temperature: 6°C
Dew Point: 5°C
Humidity: 93%
Barometer: 1024 hPa
Summary: Light Rain
Clouds: Mostly Cloudy
Visibility: 4 miles , 6 km
Cloud details: Mostly Cloudy 549 m
2017/12/17 13:20 EGKA 171320Z 00000KT 6000 -RA BKN018 06/05 Q1024
EGJA - Alderney/Channel, United Kingdom
Updated: 17/12/2017 13:20
Light rain, Mostly cloudy
Light rain, Mostly cloudy
 Wind from W
Wind: W 16 mph , 26 km/h, 14 kts
Summary: Light Rain
Clouds: Mostly Cloudy
Visibility: 6 miles , 10 km
Cloud details: Few Clouds 305 m
Partly Cloudy 549 m
Mostly Cloudy 1067 m
2017/12/17 13:20 EGJA 171320Z 26014KT 9999 -RA FEW010 SCT018 BKN035 10/// Q1025
 
EGJB - Guernsey Airport, United Kingdom
Updated: 17/12/2017 13:20
Rain, Partly cloudy
Rain, Partly cloudy
 Wind from W
Wind: W 16 mph , 26 km/h, 14 kts
Temperature: 9°C
Wind Chill: 6°C
Dew Point: 7°C
Humidity: 87%
Barometer: 1026 hPa
Summary: Rain
Clouds: Partly Cloudy
Visibility: 3 miles , 5 km
Cloud details: Partly Cloudy 457 m
Partly Cloudy 1067 m
2017/12/17 13:20 EGJB 171320Z 26014KT 5000 RA SCT015 SCT035 09/07 Q1026
EGJJ - Jersey Airport, United Kingdom
Updated: 17/12/2017 13:20
Nearby showers, Mostly cloudy
Nearby showers, Mostly cloudy
 Wind from W
Wind: W 14 mph , 22 km/h, 12 kts
Temperature: 10°C
Wind Chill: 7°C
Dew Point: 8°C
Humidity: 88%
Barometer: 1026 hPa
Summary: Nearby Showers
Clouds: Mostly Cloudy
Visibility: 6 miles , 10 km
Cloud details: Few Clouds 183 m
Partly Cloudy 732 m
Mostly Cloudy 1250 m
2017/12/17 13:20 EGJJ 171320Z 27012KT 9999 VCSH FEW006 SCT024 BKN041 10/08 Q1026
 
LFRC - Cherbourg/Mauper, France
Updated: 17/12/2017 13:30
Light rain, Mostly cloudy
Light rain, Mostly cloudy
 Wind from WSW
Wind: WSW 10 mph , 17 km/h, 9 kts
Temperature: 8°C
Wind Chill: 5°C
Dew Point: 7°C
Humidity: 93%
Barometer: 1025 hPa
Summary: Light Rain
Clouds: Mostly Cloudy
Visibility: 6 miles , 9 km
Cloud details: Partly Cloudy 244 m
Mostly Cloudy 579 m
Mostly Cloudy 914 m
2017/12/17 13:30 LFRC 171330Z AUTO 24009KT 9000 -RA SCT008 BKN019 BKN030 08/07 Q1025 TEMPO 3000 RADZ BKN012
LFRB - Brest/Guipavas, France
Updated: 17/12/2017 13:30
Overcast
Overcast
 Wind from WSW
Wind: WSW 9 mph , 15 km/h, 8 kts
Temperature: 10°C
Wind Chill: 8°C
Dew Point: 7°C
Humidity: 82%
Barometer: 1028 hPa
Clouds: Overcast
Visibility: 6 miles , 10 km
Cloud details: Partly Cloudy 1158 m
Overcast 2316 m
2017/12/17 13:30 LFRB 171330Z AUTO 25008KT 9999 SCT038 OVC076 10/07 Q1028 BECMG 4000 -RA BKN013
 
LFRO - Lannion/Servel, France
Updated: 17/12/2017 13:30
Overcast
Overcast
 Wind from WSW
Wind: WSW 10 mph , 17 km/h, 9 kts
Temperature: 10°C
Wind Chill: 8°C
Dew Point: 7°C
Humidity: 82%
Barometer: 1028 hPa
Clouds: Overcast
Visibility: 6 miles , 10 km
Cloud details: Few Clouds 640 m
Partly Cloudy 1158 m
Overcast 2195 m
2017/12/17 13:30 LFRO 171330Z AUTO 25009KT 9999 FEW021 SCT038 OVC072 10/07 Q1028 NOSIG

# Note Plymouth airport closed 23/12/2011

Metar, brief description

METAR is a format for reporting weather information. A METAR weather report is predominantly used by pilots in fulfillment of a part of a pre-flight weather briefing, and by meteorologists, who use aggregated METAR information to assist in weather forecasting.

Raw METAR is the most popular format in the world for the transmission of weather data. Each METAR report contains essential information about the current weather conditions: Temperature, Dew Point, Barometric Pressure, Wind Speed and Direction, Visibility, Clouds Cover, Current Weather (Rain, Thunderstorms, Hail, Snow and so on...), here is an example of a raw metar report for EGHQ (Newquay airport).
METAR not available